Lovilia, Iowa
Current Conditions -  °F | °C
As of 7:55 PM on Saturday 22 Nov 2014 (Local Time) from KOXV Reporting Station
Overcast Overcast  
Wind Chill: 55°   Ceiling: 3800
Heat Index: 55°   Visibility: 10mi
Dew Point: 50°   Wind: 15mph
Humidity: 82%   Direction: 180°S
Pressure: 29.68"   Gusts: NA
Location:  41.14°N, 92.9°W
Report Text: KOXV 230155Z AUTO 18013KT 10SM OVC038 13/10 A2968 RMK AO2
Loading
Personal Weather Stations






























Interactive Weather Map New forecast layout! Learn more

10-Day Weather Forecast

Advertisements
Track Severe Weather on mobile